createdAt,value
2022-08-05T00:02:55.810Z,402.51
2022-08-05T00:08:03.302Z,402.18
2022-08-05T00:13:10.171Z,402.52
2022-08-05T00:18:21.712Z,403.07
2022-08-05T00:23:44.565Z,402.41
2022-08-05T00:28:31.805Z,402.33
2022-08-05T00:34:54.674Z,402.31
2022-08-05T00:38:46.245Z,401.68
2022-08-05T00:43:53.540Z,401.45
2022-08-05T00:49:00.779Z,400.97
2022-08-05T00:54:08.045Z,401.02
2022-08-05T00:59:15.258Z,400.53
2022-08-05T01:04:26.874Z,400.57
2022-08-05T01:09:30.473Z,401.11
2022-08-05T01:14:37.081Z,400.21
2022-08-05T01:20:02.424Z,399.43
2022-08-05T01:24:51.595Z,399.60
2022-08-05T01:29:58.940Z,399.82
2022-08-05T01:35:10.567Z,398.58
2022-08-05T01:40:13.746Z,397.38
2022-08-05T01:45:21.021Z,397.23
2022-08-05T01:50:28.574Z,397.26
2022-08-05T01:55:36.111Z,396.41
2022-08-05T02:00:42.737Z,395.86
2022-08-05T02:05:49.949Z,395.96
2022-08-05T02:10:57.186Z,394.57
2022-08-05T02:16:04.462Z,393.35
2022-08-05T02:21:15.191Z,391.81
2022-08-05T02:26:18.910Z,391.78
2022-08-05T02:31:26.175Z,391.51
2022-08-05T02:36:33.446Z,391.84
2022-08-05T02:41:58.066Z,391.63
2022-08-05T02:46:58.250Z,391.14
2022-08-05T02:52:02.804Z,390.84
2022-08-05T02:57:02.418Z,391.33
2022-08-05T03:02:09.700Z,391.65
2022-08-05T03:07:48.430Z,392.09
2022-08-05T03:12:24.164Z,390.98
2022-08-05T03:17:31.458Z,391.50
2022-08-05T03:22:38.638Z,392.43
2022-08-05T03:27:59.086Z,392.79
2022-08-05T03:32:53.009Z,391.68
2022-08-05T03:38:00.237Z,391.28
2022-08-05T03:43:58.986Z,392.58
2022-08-05T03:48:14.668Z,392.89
2022-08-05T03:55:34.250Z,393.30
2022-08-05T03:58:29.342Z,393.00
2022-08-05T04:03:38.101Z,394.85
2022-08-05T04:08:43.570Z,395.90
2022-08-05T04:13:53.411Z,397.57
2022-08-05T04:18:58.859Z,398.45
2022-08-05T04:24:07.086Z,398.93
2022-08-05T04:29:13.253Z,396.77
2022-08-05T04:34:32.658Z,396.21
2022-08-05T04:39:27.951Z,396.10
2022-08-05T04:44:34.914Z,395.72
2022-08-05T04:50:02.533Z,396.41
2022-08-05T04:54:49.576Z,396.54
2022-08-05T04:59:56.572Z,396.09
2022-08-05T05:05:03.853Z,395.70
2022-08-05T05:10:11.127Z,395.89
2022-08-05T05:15:56.974Z,395.90
2022-08-05T05:20:28.618Z,394.97
2022-08-05T05:25:40.480Z,394.98
2022-08-05T05:30:40.095Z,395.87
2022-08-05T05:35:47.927Z,394.32
2022-08-05T05:40:54.558Z,394.45
2022-08-05T05:46:01.769Z,394.32
2022-08-05T05:51:15.469Z,394.47
2022-08-05T05:56:16.225Z,393.72
2022-08-05T06:01:23.581Z,393.39
2022-08-05T06:06:33.260Z,392.69
2022-08-05T06:11:39.336Z,392.68
2022-08-05T06:16:45.271Z,392.38
2022-08-05T06:21:52.537Z,392.38
2022-08-05T06:26:59.757Z,391.01
2022-08-05T06:32:20.886Z,390.48
2022-08-05T06:37:14.203Z,390.50
2022-08-05T06:42:21.414Z,389.95
2022-08-05T06:48:11.843Z,388.88
2022-08-05T06:52:37.067Z,388.45
2022-08-05T06:58:03.713Z,387.24
2022-08-05T07:02:53.818Z,385.49
2022-08-05T07:07:57.605Z,383.80
2022-08-05T07:13:04.874Z,379.99
2022-08-05T07:18:17.651Z,378.27
2022-08-05T07:23:26.479Z,378.12
2022-08-05T07:28:26.660Z,377.38
2022-08-05T07:33:37.002Z,376.20
2022-08-05T07:38:43.094Z,375.44
2022-08-05T07:43:48.302Z,375.99
2022-08-05T07:49:02.903Z,376.15
2022-08-05T07:54:02.722Z,376.16
2022-08-05T07:59:09.913Z,376.49
2022-08-05T08:04:17.203Z,376.90
2022-08-05T08:09:24.451Z,375.97
2022-08-05T08:14:31.649Z,375.39
2022-08-05T08:20:22.635Z,375.22
2022-08-05T08:24:51.248Z,375.96
2022-08-05T08:30:05.361Z,374.56
2022-08-05T08:35:00.638Z,374.57
2022-08-05T08:40:07.862Z,373.80
2022-08-05T08:45:23.839Z,373.58
2022-08-05T08:50:52.600Z,373.17
2022-08-05T08:56:01.964Z,373.30
2022-08-05T09:00:36.971Z,373.03
2022-08-05T09:06:07.928Z,372.48
2022-08-05T09:10:51.232Z,372.68
2022-08-05T09:15:58.523Z,372.39
2022-08-05T09:21:05.689Z,371.73
2022-08-05T09:26:20.517Z,371.77
2022-08-05T09:32:38.671Z,371.66
2022-08-05T09:36:33.543Z,371.95
2022-08-05T09:41:38.266Z,373.51
2022-08-05T09:46:51.728Z,373.66
2022-08-05T09:51:49.717Z,373.74
2022-08-05T09:56:57.649Z,373.35
2022-08-05T10:02:03.672Z,375.33
2022-08-05T10:07:25.032Z,374.77
2022-08-05T10:12:30.948Z,375.49
2022-08-05T10:17:37.840Z,375.68
2022-08-05T10:22:37.691Z,376.14
2022-08-05T10:28:09.239Z,376.98
2022-08-05T10:33:02.068Z,377.62
2022-08-05T10:37:54.867Z,377.97
2022-08-05T10:43:02.104Z,378.35
2022-08-05T10:48:31.508Z,379.18
2022-08-05T10:53:17.494Z,379.17
2022-08-05T10:58:35.726Z,379.88
2022-08-05T11:03:31.107Z,380.57
2022-08-05T11:08:39.338Z,381.06
2022-08-05T11:13:54.995Z,381.54
2022-08-05T11:18:52.762Z,381.38
2022-08-05T11:24:04.751Z,381.09
2022-08-05T11:29:12.668Z,382.45
2022-08-05T11:34:14.808Z,382.70
2022-08-05T11:39:21.723Z,383.32
2022-08-05T11:44:40.752Z,383.47
2022-08-05T11:49:36.175Z,383.72
2022-08-05T11:54:43.533Z,383.96
2022-08-05T11:59:50.897Z,385.60
2022-08-05T12:04:59.204Z,385.54
2022-08-05T12:10:09.556Z,385.90
2022-08-05T12:15:16.651Z,386.62
2022-08-05T12:20:28.803Z,386.80
2022-08-05T12:25:28.569Z,386.94
2022-08-05T12:30:34.000Z,387.69
2022-08-05T12:35:43.105Z,388.28
2022-08-05T12:40:48.458Z,388.26
2022-08-05T12:45:55.737Z,389.19
2022-08-05T12:51:02.939Z,390.20
2022-08-05T12:56:34.330Z,390.50
2022-08-05T13:02:01.963Z,391.23
2022-08-05T13:06:24.540Z,392.05
2022-08-05T13:12:02.352Z,392.58
2022-08-05T13:16:39.072Z,392.93
2022-08-05T13:21:52.337Z,393.49
2022-08-05T13:26:53.506Z,393.92
2022-08-05T13:32:04.267Z,394.42
2022-08-05T13:37:07.911Z,394.73
2022-08-05T13:42:15.408Z,395.15
2022-08-05T13:47:36.142Z,395.27
2022-08-05T13:52:29.613Z,395.25
2022-08-05T13:57:50.573Z,395.52
2022-08-05T14:02:44.113Z,396.10
2022-08-05T14:08:01.010Z,395.82
2022-08-05T14:12:59.660Z,395.72
2022-08-05T14:18:06.499Z,396.33
2022-08-05T14:23:13.689Z,396.34
2022-08-05T14:28:26.397Z,396.21
2022-08-05T14:33:32.442Z,396.97
2022-08-05T14:38:36.410Z,397.58
2022-08-05T14:43:57.779Z,397.83
2022-08-05T14:48:50.424Z,397.15
2022-08-05T14:54:26.152Z,397.23
2022-08-05T14:59:04.803Z,396.24
2022-08-05T15:04:12.041Z,395.97
2022-08-05T15:09:52.044Z,395.38
2022-08-05T15:14:35.097Z,395.12
2022-08-05T15:19:33.816Z,395.87
2022-08-05T15:24:41.073Z,396.06
2022-08-05T15:29:48.996Z,395.66
2022-08-05T15:34:55.552Z,396.04
2022-08-05T15:40:59.775Z,395.84
2022-08-05T15:45:10.009Z,395.79
2022-08-05T15:50:17.204Z,395.60
2022-08-05T15:56:01.339Z,394.13
2022-08-05T16:00:50.196Z,393.94
2022-08-05T16:05:39.169Z,393.26
2022-08-05T16:10:46.249Z,393.26
2022-08-05T16:15:53.519Z,393.54
2022-08-05T16:21:03.966Z,393.57
2022-08-05T16:26:07.928Z,392.68
2022-08-05T16:31:15.198Z,392.01
2022-08-05T16:36:23.904Z,390.95
2022-08-05T16:42:14.590Z,390.24
2022-08-05T16:46:36.968Z,389.37
2022-08-05T16:51:50.988Z,389.38
2022-08-05T16:56:51.940Z,388.96
2022-08-05T17:02:00.874Z,387.08
2022-08-05T17:07:11.491Z,387.64
2022-08-05T17:12:13.233Z,388.42
2022-08-05T17:17:20.517Z,389.27
2022-08-05T17:22:28.078Z,389.22
2022-08-05T17:27:34.930Z,390.84
2022-08-05T17:32:42.347Z,390.85
2022-08-05T17:37:49.446Z,390.97
2022-08-05T17:42:56.615Z,390.91
2022-08-05T17:48:03.901Z,392.05
2022-08-05T17:53:11.149Z,392.19
2022-08-05T17:58:21.718Z,395.00
2022-08-05T18:03:58.642Z,395.47
2022-08-05T18:08:32.922Z,394.86
2022-08-05T18:13:43.808Z,392.68
2022-08-05T18:18:47.966Z,390.13
2022-08-05T18:23:54.669Z,387.31
2022-08-05T18:29:01.871Z,385.88
2022-08-05T18:34:11.977Z,384.65
2022-08-05T18:39:42.220Z,383.27
2022-08-05T18:44:32.953Z,382.59
2022-08-05T18:49:30.868Z,382.20
2022-08-05T18:54:41.418Z,380.09
2022-08-05T19:00:03.129Z,378.67
2022-08-05T19:05:02.073Z,378.09
2022-08-05T19:10:01.022Z,373.77
2022-08-05T19:15:25.029Z,371.70
2022-08-05T19:20:16.370Z,368.17
2022-08-05T19:25:30.084Z,365.63
2022-08-05T19:30:31.608Z,358.96
2022-08-05T19:35:56.013Z,352.59
2022-08-05T19:40:46.550Z,349.24
2022-08-05T19:45:54.763Z,347.18
2022-08-05T19:51:01.445Z,344.52
2022-08-05T19:56:14.878Z,341.42
2022-08-05T20:01:17.541Z,341.84
2022-08-05T20:06:29.171Z,343.38
2022-08-05T20:11:31.715Z,340.45
2022-08-05T20:16:39.199Z,340.31
2022-08-05T20:21:46.608Z,339.03
2022-08-05T20:26:53.924Z,337.54
2022-08-05T20:32:01.192Z,337.79
2022-08-05T20:37:17.773Z,338.68
2022-08-05T20:42:15.729Z,338.96
2022-08-05T20:47:32.094Z,339.51
2022-08-05T20:52:30.290Z,340.54
2022-08-05T20:57:44.057Z,342.15
2022-08-05T21:02:51.617Z,343.63
2022-08-05T21:07:52.479Z,342.41
2022-08-05T21:13:11.329Z,341.59
2022-08-05T21:18:06.428Z,342.15
2022-08-05T21:23:14.123Z,340.82
2022-08-05T21:28:23.737Z,341.33
2022-08-05T21:33:36.988Z,342.01
2022-08-05T21:38:38.734Z,343.28
2022-08-05T21:43:42.625Z,343.83
2022-08-05T21:48:49.821Z,345.43
2022-08-05T21:54:03.511Z,346.06
2022-08-05T21:59:07.743Z,345.64
2022-08-05T22:04:13.490Z,345.59
2022-08-05T22:09:21.545Z,346.28
2022-08-05T22:14:35.256Z,346.21
2022-08-05T22:20:00.767Z,346.14
2022-08-05T22:24:51.653Z,346.29
2022-08-05T22:29:47.582Z,345.92
2022-08-05T22:34:54.795Z,346.20
2022-08-05T22:40:02.130Z,346.26
2022-08-05T22:45:09.258Z,345.69
2022-08-05T22:50:20.401Z,344.82
2022-08-05T22:55:23.782Z,344.94
2022-08-05T23:00:31.325Z,343.29
2022-08-05T23:05:38.313Z,342.66
2022-08-05T23:10:46.547Z,343.33
2022-08-05T23:15:53.794Z,342.75
2022-08-05T23:21:01.078Z,343.08
2022-08-05T23:26:08.353Z,342.19
2022-08-05T23:31:17.401Z,341.77
2022-08-05T23:36:28.255Z,340.95
2022-08-05T23:41:30.061Z,341.22
2022-08-05T23:46:39.294Z,341.02
2022-08-05T23:51:44.590Z,340.53
2022-08-05T23:56:51.837Z,340.52
